createdAt,value
2018-03-26T00:00:46.484Z,63.77
2018-03-26T00:03:15.425Z,66.23
2018-03-26T00:05:44.375Z,66.23
2018-03-26T00:08:13.332Z,65.30
2018-03-26T00:10:42.273Z,64.27
2018-03-26T00:13:11.217Z,65.07
2018-03-26T00:15:40.139Z,67.30
2018-03-26T00:18:09.066Z,64.83
2018-03-26T00:20:38.031Z,63.13
2018-03-26T00:23:06.935Z,67.20
2018-03-26T00:25:35.836Z,63.00
2018-03-26T00:28:04.832Z,63.90
2018-03-26T00:30:33.746Z,66.47
2018-03-26T00:33:02.684Z,64.57
2018-03-26T00:35:31.731Z,65.53
2018-03-26T00:38:00.731Z,65.90
2018-03-26T00:40:29.644Z,64.63
2018-03-26T00:42:58.631Z,65.03
2018-03-26T00:45:27.548Z,64.07
2018-03-26T00:47:56.464Z,66.03
2018-03-26T00:50:25.398Z,68.57
2018-03-26T00:52:54.348Z,66.13
2018-03-26T00:55:23.255Z,64.33
2018-03-26T00:57:52.187Z,66.27
2018-03-26T01:00:21.119Z,70.83
2018-03-26T01:02:50.016Z,66.20
2018-03-26T01:05:18.928Z,63.93
2018-03-26T01:07:47.862Z,68.63
2018-03-26T01:10:16.764Z,69.50
2018-03-26T01:12:45.693Z,65.00
2018-03-26T01:15:14.620Z,68.90
2018-03-26T01:17:43.564Z,69.10
2018-03-26T01:20:12.520Z,68.93
2018-03-26T01:22:41.479Z,66.63
2018-03-26T01:25:10.389Z,70.27
2018-03-26T01:27:39.324Z,66.73
2018-03-26T01:30:08.238Z,68.50
2018-03-26T01:32:37.159Z,73.10
2018-03-26T01:35:06.088Z,77.43
2018-03-26T01:37:35.009Z,78.77
2018-03-26T01:40:03.906Z,78.67
2018-03-26T01:42:32.865Z,82.23
2018-03-26T01:45:01.788Z,99.83
2018-03-26T01:47:30.779Z,87.23
2018-03-26T01:49:59.708Z,82.43
2018-03-26T01:52:28.646Z,76.07
2018-03-26T01:54:57.580Z,73.67
2018-03-26T01:57:26.494Z,69.17
2018-03-26T01:59:55.434Z,68.67
2018-03-26T02:02:24.331Z,66.97
2018-03-26T02:04:53.256Z,66.17
2018-03-26T02:07:22.209Z,70.67
2018-03-26T02:09:52.024Z,67.17
2018-03-26T02:12:21.392Z,62.40
2018-03-26T02:14:50.298Z,65.70
2018-03-26T02:17:19.251Z,67.63
2018-03-26T02:19:48.187Z,67.27
2018-03-26T02:22:17.166Z,65.17
2018-03-26T02:24:46.124Z,62.53
2018-03-26T02:27:15.023Z,62.20
2018-03-26T02:29:44.005Z,64.60
2018-03-26T02:32:12.934Z,60.07
2018-03-26T02:34:41.853Z,63.80
2018-03-26T02:37:10.780Z,62.43
2018-03-26T02:39:39.706Z,66.10
2018-03-26T02:42:08.639Z,61.87
2018-03-26T02:44:37.535Z,61.97
2018-03-26T02:47:06.444Z,61.63
2018-03-26T02:49:35.371Z,59.97
2018-03-26T02:52:04.337Z,60.40
2018-03-26T02:54:33.279Z,60.87
2018-03-26T02:57:02.198Z,61.90
2018-03-26T02:59:31.099Z,67.30
2018-03-26T03:02:00.027Z,67.50
2018-03-26T03:04:28.953Z,66.77
2018-03-26T03:06:57.931Z,59.90
2018-03-26T03:09:27.349Z,60.63
2018-03-26T03:11:56.279Z,59.57
2018-03-26T03:14:25.198Z,67.00
2018-03-26T03:16:54.099Z,68.87
2018-03-26T03:19:23.050Z,69.97
2018-03-26T03:21:51.970Z,68.87
2018-03-26T03:24:20.905Z,69.17
2018-03-26T03:26:49.846Z,70.50
2018-03-26T03:29:18.757Z,68.30
2018-03-26T03:31:47.766Z,66.40
2018-03-26T03:34:16.704Z,65.83
2018-03-26T03:36:45.691Z,69.40
2018-03-26T03:39:14.642Z,66.53
2018-03-26T03:41:43.556Z,69.23
2018-03-26T03:46:47.915Z,69.93
2018-03-26T03:49:16.908Z,68.23
2018-03-26T03:51:45.808Z,73.33
2018-03-26T03:54:14.728Z,79.17
2018-03-26T03:56:43.668Z,80.73
2018-03-26T03:59:12.645Z,78.23
2018-03-26T04:01:41.573Z,79.10
2018-03-26T04:04:10.523Z,78.83
2018-03-26T04:06:39.421Z,79.77
2018-03-26T04:09:08.400Z,77.87
2018-03-26T04:11:37.303Z,75.37
2018-03-26T04:14:06.260Z,75.30
2018-03-26T04:16:35.208Z,75.13
2018-03-26T04:19:04.108Z,74.63
2018-03-26T04:21:33.047Z,75.70
2018-03-26T04:24:01.974Z,76.70
2018-03-26T04:26:30.867Z,73.30
2018-03-26T04:28:59.864Z,78.27
2018-03-26T04:31:28.761Z,74.77
2018-03-26T04:33:57.679Z,73.43
2018-03-26T04:36:26.740Z,75.60
2018-03-26T04:38:55.655Z,73.93
2018-03-26T04:41:24.633Z,75.43
2018-03-26T04:43:53.531Z,71.57
2018-03-26T04:46:22.529Z,70.03
2018-03-26T04:48:51.444Z,70.97
2018-03-26T04:51:20.380Z,67.80
2018-03-26T04:53:49.374Z,68.80
2018-03-26T04:56:18.275Z,68.40
2018-03-26T04:58:47.173Z,68.57
2018-03-26T05:01:16.119Z,68.00
2018-03-26T05:03:45.043Z,68.10
2018-03-26T05:06:13.961Z,67.80
2018-03-26T05:08:42.925Z,67.03
2018-03-26T05:11:11.840Z,65.73
2018-03-26T05:13:40.808Z,66.30
2018-03-26T05:16:09.717Z,67.80
2018-03-26T05:18:38.617Z,68.80
2018-03-26T05:21:07.591Z,70.10
2018-03-26T05:23:36.508Z,68.73
2018-03-26T05:26:05.448Z,72.13
2018-03-26T05:28:34.409Z,75.87
2018-03-26T05:31:03.392Z,71.33
2018-03-26T05:33:32.260Z,74.13
2018-03-26T05:36:01.207Z,76.47
2018-03-26T05:38:30.164Z,71.80
2018-03-26T05:40:59.114Z,76.10
2018-03-26T05:43:28.083Z,75.17
2018-03-26T05:45:57.012Z,74.20
2018-03-26T05:48:26.029Z,76.57
2018-03-26T05:50:54.963Z,78.87
2018-03-26T05:53:23.920Z,75.53
2018-03-26T05:55:52.943Z,87.77
2018-03-26T05:58:21.850Z,85.83
2018-03-26T06:00:50.866Z,83.73
2018-03-26T06:03:19.927Z,84.23
2018-03-26T06:05:48.849Z,82.80
2018-03-26T06:08:17.780Z,76.57
2018-03-26T06:10:46.753Z,75.63
2018-03-26T06:13:15.869Z,59.17
2018-03-26T06:15:44.815Z,53.10
2018-03-26T06:18:13.721Z,61.77
2018-03-26T06:20:42.620Z,61.63
2018-03-26T06:23:11.557Z,66.20
2018-03-26T06:25:40.465Z,69.30
2018-03-26T06:28:09.407Z,74.97
2018-03-26T06:30:38.328Z,76.23
2018-03-26T06:33:07.249Z,69.50
2018-03-26T06:35:36.174Z,76.53
2018-03-26T06:38:25.765Z,76.97
2018-03-26T06:40:54.704Z,72.10
2018-03-26T06:43:23.640Z,70.53
2018-03-26T06:45:52.560Z,63.70
2018-03-26T06:48:21.524Z,63.10
2018-03-26T06:50:50.440Z,55.87
2018-03-26T06:53:19.342Z,42.93
2018-03-26T06:55:48.285Z,45.73
2018-03-26T06:58:17.166Z,49.83
2018-03-26T07:00:46.130Z,55.47
2018-03-26T07:03:15.043Z,63.77
2018-03-26T07:05:43.939Z,68.70
2018-03-26T07:08:12.907Z,64.80
2018-03-26T07:10:41.821Z,61.77
2018-03-26T07:13:10.728Z,60.20
2018-03-26T07:15:39.659Z,58.20
2018-03-26T07:18:08.576Z,55.13
2018-03-26T07:20:37.729Z,52.83
2018-03-26T07:23:06.648Z,55.30
2018-03-26T07:25:35.548Z,54.83
2018-03-26T07:28:04.506Z,53.87
2018-03-26T07:30:33.416Z,49.17
2018-03-26T07:33:02.357Z,50.50
2018-03-26T07:35:31.263Z,44.73
2018-03-26T07:38:00.203Z,45.70
2018-03-26T07:40:29.136Z,39.77
2018-03-26T07:42:58.045Z,41.73
2018-03-26T07:45:27.000Z,43.33
2018-03-26T07:47:55.932Z,43.03
2018-03-26T07:50:24.843Z,42.00
2018-03-26T07:52:53.784Z,39.80
2018-03-26T07:55:22.779Z,35.87
2018-03-26T07:57:51.683Z,39.20
2018-03-26T08:00:20.633Z,40.07
2018-03-26T08:02:49.555Z,38.63
2018-03-26T08:05:18.460Z,38.17
2018-03-26T08:07:47.415Z,46.37
2018-03-26T08:10:16.415Z,47.20
2018-03-26T08:12:45.329Z,46.40
2018-03-26T08:15:14.323Z,46.73
2018-03-26T08:17:43.323Z,48.00
2018-03-26T08:20:12.246Z,50.20
2018-03-26T08:22:41.180Z,50.87
2018-03-26T08:25:10.174Z,55.37
2018-03-26T08:27:39.119Z,59.53
2018-03-26T08:30:08.111Z,61.07
2018-03-26T08:32:37.051Z,64.80
2018-03-26T08:35:06.041Z,63.70
2018-03-26T08:37:35.028Z,65.93
2018-03-26T08:40:03.961Z,68.60
2018-03-26T08:42:32.976Z,66.27
2018-03-26T08:45:01.904Z,62.23
2018-03-26T08:47:30.835Z,60.90
2018-03-26T08:49:59.865Z,58.13
2018-03-26T08:52:28.727Z,59.60
2018-03-26T08:54:57.717Z,54.10
2018-03-26T08:57:26.624Z,50.63
2018-03-26T08:59:55.573Z,56.37
2018-03-26T09:02:24.567Z,54.93
2018-03-26T09:04:53.496Z,52.43
2018-03-26T09:07:22.435Z,49.23
2018-03-26T09:09:51.367Z,49.30
2018-03-26T09:12:20.346Z,48.53
2018-03-26T09:14:49.308Z,45.37
2018-03-26T09:17:18.274Z,47.03
2018-03-26T09:19:47.238Z,45.70
2018-03-26T09:22:16.285Z,41.63
2018-03-26T09:24:45.249Z,41.47
2018-03-26T09:27:14.193Z,39.57
2018-03-26T09:29:43.171Z,34.37
2018-03-26T09:32:12.129Z,32.47
2018-03-26T09:34:41.060Z,33.70
2018-03-26T09:37:09.989Z,33.50
2018-03-26T09:39:38.973Z,32.83
2018-03-26T09:42:07.919Z,32.83
2018-03-26T09:44:36.876Z,33.00
2018-03-26T09:47:05.792Z,32.23
2018-03-26T09:49:34.712Z,33.07
2018-03-26T09:52:03.654Z,31.73
2018-03-26T09:54:32.602Z,31.40
2018-03-26T09:57:01.672Z,34.47
2018-03-26T09:59:30.604Z,31.33
2018-03-26T10:01:59.537Z,33.40
2018-03-26T12:18:47.953Z,22.53
2018-03-26T12:21:16.883Z,20.90
2018-03-26T12:23:51.598Z,19.90
2018-03-26T12:26:20.544Z,24.63
2018-03-26T12:28:55.271Z,19.90
2018-03-26T12:31:24.216Z,17.37
2018-03-26T12:33:59.104Z,15.87
2018-03-26T12:36:28.055Z,14.87
2018-03-26T12:38:56.985Z,15.83
2018-03-26T12:41:25.950Z,14.83
2018-03-26T12:43:55.254Z,14.47
2018-03-26T12:46:30.114Z,15.03
2018-03-26T12:48:59.072Z,15.30
2018-03-26T12:51:33.973Z,16.87
2018-03-26T12:54:02.923Z,16.90
2018-03-26T12:56:31.915Z,17.97
2018-03-26T12:59:00.892Z,16.73
2018-03-26T13:01:35.840Z,16.40
2018-03-26T13:04:04.784Z,17.83
2018-03-26T13:06:33.698Z,17.63
2018-03-26T13:09:02.695Z,17.07
2018-03-26T13:11:31.651Z,18.40
2018-03-26T13:14:00.579Z,18.23
2018-03-26T13:16:29.539Z,17.80
2018-03-26T13:18:58.462Z,16.40
2018-03-26T13:21:27.409Z,18.00
2018-03-26T13:23:56.368Z,18.20
2018-03-26T13:26:25.328Z,20.20
2018-03-26T13:28:54.519Z,19.40
2018-03-26T13:31:23.525Z,19.13
2018-03-26T13:33:52.506Z,19.20
2018-03-26T13:36:21.843Z,18.53
2018-03-26T13:38:50.788Z,19.83
2018-03-26T13:41:19.745Z,18.33
2018-03-26T13:43:48.671Z,19.83
2018-03-26T13:46:17.616Z,22.60
2018-03-26T13:48:46.522Z,21.33
2018-03-26T13:51:15.490Z,21.87
2018-03-26T13:53:44.417Z,23.00
2018-03-26T13:56:13.641Z,20.80
2018-03-26T13:58:42.566Z,21.37
2018-03-26T14:01:11.497Z,23.00
2018-03-26T14:03:40.826Z,21.80
2018-03-26T14:06:09.749Z,21.37
2018-03-26T14:08:44.694Z,22.97
2018-03-26T14:11:19.400Z,23.33
2018-03-26T14:13:54.351Z,22.97
2018-03-26T14:16:29.139Z,23.77
2018-03-26T14:18:58.091Z,23.80
2018-03-26T14:21:27.047Z,23.90
2018-03-26T14:23:55.971Z,22.93
2018-03-26T14:26:24.931Z,22.40
2018-03-26T14:28:53.894Z,23.10
2018-03-26T14:31:22.854Z,24.63
2018-03-26T14:33:51.800Z,25.03
2018-03-26T14:36:20.778Z,24.27
2018-03-26T14:38:49.690Z,26.67
2018-03-26T14:41:18.681Z,24.73
2018-03-26T14:43:47.604Z,24.27
2018-03-26T14:46:16.574Z,26.57
2018-03-26T14:48:45.489Z,25.10
2018-03-26T14:51:14.576Z,24.87
2018-03-26T14:53:43.518Z,25.50
2018-03-26T14:56:12.415Z,26.00
2018-03-26T14:58:41.338Z,28.43
2018-03-26T15:01:10.284Z,30.30
2018-03-26T15:03:39.187Z,34.97
2018-03-26T15:06:08.104Z,35.70
2018-03-26T15:08:37.072Z,33.63
2018-03-26T15:11:06.212Z,35.37
2018-03-26T15:13:35.132Z,33.37
2018-03-26T15:16:04.066Z,33.17
2018-03-26T15:18:32.971Z,34.23
2018-03-26T15:21:01.938Z,33.53
2018-03-26T15:23:30.883Z,32.67
2018-03-26T15:25:59.790Z,35.33
2018-03-26T15:28:28.725Z,33.83
2018-03-26T15:30:57.635Z,33.67
2018-03-26T15:33:26.633Z,33.13
2018-03-26T15:35:55.558Z,34.30
2018-03-26T15:38:24.483Z,36.47
2018-03-26T15:40:53.441Z,36.10
2018-03-26T15:43:22.340Z,38.30
2018-03-26T15:45:51.345Z,40.07
2018-03-26T15:48:20.314Z,44.13
2018-03-26T15:50:49.175Z,48.13
2018-03-26T15:53:18.211Z,46.70
2018-03-26T15:55:47.112Z,40.33
2018-03-26T15:58:16.019Z,45.27
2018-03-26T16:00:44.931Z,41.43
2018-03-26T16:03:19.699Z,43.13
2018-03-26T16:05:48.641Z,39.83
2018-03-26T16:08:17.583Z,44.37
2018-03-26T16:10:46.483Z,51.10
2018-03-26T16:13:15.443Z,45.43
2018-03-26T16:15:44.435Z,42.17
2018-03-26T16:18:13.427Z,40.07
2018-03-26T16:20:42.416Z,43.63
2018-03-26T16:23:11.337Z,45.13
2018-03-26T16:25:40.303Z,47.33
2018-03-26T16:28:09.260Z,45.53
2018-03-26T16:30:38.158Z,46.73
2018-03-26T16:33:07.129Z,46.67
2018-03-26T16:35:36.035Z,48.20
2018-03-26T16:38:04.989Z,47.23
2018-03-26T16:40:33.955Z,47.13
2018-03-26T16:43:04.591Z,49.37
2018-03-26T16:45:33.566Z,51.33
2018-03-26T16:48:02.547Z,50.40
2018-03-26T16:50:31.460Z,49.67
2018-03-26T16:53:00.533Z,52.87
2018-03-26T16:55:29.447Z,54.73
2018-03-26T16:57:58.361Z,52.23
2018-03-26T17:00:27.369Z,57.83
2018-03-26T17:02:56.275Z,54.43
2018-03-26T17:05:25.226Z,53.20
2018-03-26T17:07:54.161Z,58.50
2018-03-26T17:10:23.898Z,57.30
2018-03-26T17:12:52.858Z,61.73
2018-03-26T17:15:21.782Z,57.73
2018-03-26T17:17:50.717Z,58.93
2018-03-26T17:20:19.933Z,61.50
2018-03-26T17:22:48.866Z,59.10
2018-03-26T17:25:17.785Z,62.27
2018-03-26T17:27:46.786Z,63.43
2018-03-26T17:30:15.700Z,64.07
2018-03-26T17:32:44.640Z,64.93
2018-03-26T17:35:13.641Z,69.30
2018-03-26T17:37:42.584Z,70.63
2018-03-26T17:40:11.502Z,72.10
2018-03-26T17:42:40.472Z,70.77
2018-03-26T17:45:09.376Z,72.27
2018-03-26T17:47:38.284Z,74.03
2018-03-26T17:50:07.232Z,86.87
2018-03-26T17:52:36.152Z,101.77
2018-03-26T17:55:05.064Z,108.03
2018-03-26T17:57:34.095Z,120.07
2018-03-26T18:00:03.016Z,98.27
2018-03-26T18:02:31.919Z,98.73
2018-03-26T18:05:00.937Z,97.70
2018-03-26T18:07:29.859Z,91.07
2018-03-26T18:09:58.841Z,97.60
2018-03-26T18:12:28.080Z,93.23
2018-03-26T18:14:57.005Z,93.90
2018-03-26T18:17:25.976Z,94.13
2018-03-26T18:19:54.890Z,97.20
2018-03-26T18:22:23.859Z,104.90
2018-03-26T18:24:52.781Z,142.70
2018-03-26T18:27:21.774Z,117.03
2018-03-26T18:29:50.670Z,100.97
2018-03-26T18:32:19.614Z,89.57
2018-03-26T18:34:48.581Z,85.80
2018-03-26T18:37:17.504Z,86.60
2018-03-26T18:39:46.465Z,85.33
2018-03-26T18:42:15.418Z,82.97
2018-03-26T18:44:44.334Z,77.23
2018-03-26T18:47:13.298Z,70.40
2018-03-26T18:49:42.945Z,69.53
2018-03-26T18:52:12.247Z,65.40
2018-03-26T18:54:41.183Z,62.13
2018-03-26T18:57:10.175Z,61.53
2018-03-26T18:59:39.082Z,64.03
2018-03-26T19:02:08.034Z,71.63
2018-03-26T19:04:36.940Z,80.47
2018-03-26T19:07:05.859Z,107.33
2018-03-26T19:09:34.824Z,124.97
2018-03-26T19:12:03.776Z,108.57
2018-03-26T19:14:32.704Z,110.53
2018-03-26T19:17:01.634Z,131.67
2018-03-26T19:19:30.609Z,114.17
2018-03-26T19:21:59.531Z,99.87
2018-03-26T19:24:28.507Z,86.33
2018-03-26T19:26:57.456Z,99.13
2018-03-26T19:29:26.419Z,104.20
2018-03-26T19:31:55.355Z,86.30
2018-03-26T19:34:24.307Z,88.70
2018-03-26T19:36:53.578Z,87.93
2018-03-26T19:39:22.651Z,85.67
2018-03-26T19:41:51.567Z,80.07
2018-03-26T19:44:21.053Z,79.60
2018-03-26T19:46:49.978Z,77.33
2018-03-26T19:49:18.935Z,79.30
2018-03-26T19:51:47.893Z,81.57
2018-03-26T19:54:16.843Z,83.70
2018-03-26T19:56:45.764Z,87.67
2018-03-26T19:59:15.318Z,88.40
2018-03-26T20:01:44.450Z,90.63
2018-03-26T20:04:14.378Z,94.67
2018-03-26T20:06:43.350Z,91.43
2018-03-26T20:09:12.302Z,89.90
2018-03-26T20:11:41.232Z,88.00
2018-03-26T20:14:10.186Z,86.53
2018-03-26T20:16:39.145Z,86.20
2018-03-26T20:19:08.480Z,92.80
2018-03-26T20:21:37.773Z,90.27
2018-03-26T20:24:06.711Z,90.93
2018-03-26T20:26:35.638Z,85.30
2018-03-26T20:29:04.574Z,82.40
2018-03-26T20:31:33.714Z,79.30
2018-03-26T20:34:02.645Z,81.07
2018-03-26T20:36:31.641Z,81.00
2018-03-26T20:39:00.552Z,76.70
2018-03-26T20:41:29.496Z,76.20
2018-03-26T20:43:58.469Z,75.10
2018-03-26T20:46:27.390Z,78.97
2018-03-26T20:48:56.522Z,78.97
2018-03-26T20:51:25.445Z,78.40
2018-03-26T20:53:54.429Z,78.13
2018-03-26T20:56:24.230Z,76.47
2018-03-26T20:58:53.328Z,74.63
2018-03-26T21:01:22.472Z,76.73
2018-03-26T21:03:51.403Z,75.40
2018-03-26T21:06:20.366Z,74.37
2018-03-26T21:08:49.306Z,76.07
2018-03-26T21:11:18.299Z,76.47
2018-03-26T21:13:47.259Z,81.53
2018-03-26T21:16:16.195Z,79.63
2018-03-26T21:18:45.160Z,75.97
2018-03-26T21:21:14.108Z,73.03
2018-03-26T21:23:43.064Z,75.80
2018-03-26T21:26:11.980Z,75.27
2018-03-26T21:28:40.929Z,76.40
2018-03-26T21:31:09.831Z,75.60
2018-03-26T21:33:38.801Z,74.97
2018-03-26T21:36:07.746Z,76.30
2018-03-26T21:38:36.710Z,78.70
2018-03-26T21:41:05.621Z,85.13
2018-03-26T21:43:34.540Z,93.87
2018-03-26T21:46:03.487Z,89.77
2018-03-26T21:48:32.400Z,87.60
2018-03-26T21:51:01.498Z,90.50
2018-03-26T21:53:30.474Z,93.03
2018-03-26T21:55:59.397Z,90.43
2018-03-26T21:58:28.351Z,94.77
2018-03-26T22:00:57.270Z,95.83
2018-03-26T22:03:26.246Z,98.60
2018-03-26T22:05:55.147Z,102.07
2018-03-26T22:08:24.097Z,102.17
2018-03-26T22:10:53.269Z,107.53
2018-03-26T22:13:22.329Z,104.87
2018-03-26T22:15:51.320Z,105.93
2018-03-26T22:18:20.231Z,109.03
2018-03-26T22:20:49.177Z,106.57
2018-03-26T22:23:18.132Z,105.93
2018-03-26T22:25:47.039Z,107.70
2018-03-26T22:28:15.977Z,106.60
2018-03-26T22:30:44.953Z,108.20
2018-03-26T22:33:13.889Z,107.30
2018-03-26T22:35:42.845Z,106.93
2018-03-26T22:38:11.831Z,105.10
2018-03-26T22:40:40.801Z,108.30
2018-03-26T22:43:09.725Z,106.27
2018-03-26T22:45:38.750Z,105.10
2018-03-26T22:48:07.714Z,103.93
2018-03-26T22:50:36.643Z,102.17
2018-03-26T22:53:05.607Z,106.33
2018-03-26T22:55:34.590Z,103.97
2018-03-26T22:58:03.560Z,102.70
2018-03-26T23:00:32.477Z,100.70
2018-03-26T23:03:01.427Z,102.00
2018-03-26T23:05:30.361Z,102.73
2018-03-26T23:07:59.321Z,101.50
2018-03-26T23:10:28.340Z,104.17
2018-03-26T23:12:57.255Z,109.30
2018-03-26T23:15:26.196Z,107.33
2018-03-26T23:17:55.123Z,104.97
2018-03-26T23:20:24.067Z,101.93
2018-03-26T23:22:52.992Z,111.77
2018-03-26T23:25:21.996Z,104.67
2018-03-26T23:27:50.912Z,105.77
2018-03-26T23:30:19.841Z,104.03
2018-03-26T23:32:48.782Z,101.47
2018-03-26T23:35:17.699Z,103.20
2018-03-26T23:37:46.653Z,99.13
2018-03-26T23:40:15.569Z,92.07
2018-03-26T23:42:44.546Z,94.87
2018-03-26T23:45:13.463Z,93.10
2018-03-26T23:47:42.434Z,99.13
2018-03-26T23:50:11.387Z,102.63
2018-03-26T23:52:40.309Z,113.47
2018-03-26T23:55:09.265Z,112.43
2018-03-26T23:57:38.226Z,112.00
